Terminal Aerodrome Forecast
Issued by NWS Wichita, KS

Home | Current Version | Previous Version | Text Only | Print | Product List | Glossary On
Versions: 1 2 3 4 5 6 7 8 9 10 11 12 13 14 15 16 17 18
000
FTUS43 KICT 291740
TAFICT
TAF
KICT 291740Z 2918/3018 03012G20KT P6SM -RA VCTS OVC008CB
      TEMPO 2918/2922 4SM -RA SCT008 OVC015
     FM300000 02012G20KT P6SM -RA OVC008
     FM300600 36015G22KT P6SM VCSH OVC008
      TEMPO 3010/3014 P6SM -RA OVC004
     FM301600 24012KT P6SM OVC008=

USA.gov is the U.S. government's official web portal to all federal, state and local government web resources and services.